Portada
METAR-TAF:

METAR-TAF

Aeroports :

Rarotonga, Illes Cook

latitud: 21-12S, longitud: 159-49W, altitud: 7 m

Observació

L'informe es va fer fa 27 minuts, a les 17:30 UTC
Vent 5 kt del Est
Temperatura 23°C
Humitat 89%
Pressió 1018 hPa
Visibilitat 10 km o més

METAR: NCRG 231730Z AUTO 10005KT 9999 FEW028/// OVC070/// 23/21 Q1018

Hora: 07:57 (17:57 UTC)

Pronòstic

L'informe es va fer fa 55 minuts, a les 17:02 UTC
Pronòstic vàlid del 23 a les 18 UTC al 24 a les 18 UTC
Vent 5 kt del Est
Visibilitat 10 km o més
Núvols disperses a una alçada de 2000 ft
Cel ennuvolat a una alçada de 4000 ft
Probabilitat 30% :
Temporalment
l' 23 a les 18 UTC al 23 a les 20 UTC
Visibilitat: 5000 m
Cel ennuvolat a una alçada de 1500 ft
xàfecs de pluja

TAF: NCRG 231702Z 2318/2418 10005KT 9999 SCT020 BKN040 PROB30 TEMPO 2318/2320 5000 SHRA BKN015

Observacions i pronòstics meteorològics de més de 4000 aeroports (METAR i TAF).

Les estacions disponibles són els punts grocs i vermells al mapa.

Posi el ratolí al punt desitjat per veure el nom de l'estació.

Feu clic per veure les observacions i els pronòstics meteorològics.

Per canviar el mapa: feu clic els botons verds amb una creu de color negre per apropar; al botó verd amb un guió per allunyar la imatge; o en les fletxes verdes per a mapes adjacents.


METAR-TAF: